Time;durP1;ratioP1;P1;durP2;ratioP2;P2;SDS_P1;SDS_P2;PMS_P1;PMS_P2;Temp;Humidity;BMP_temperature;BMP_pressure;BME280_temperature;BME280_humidity;BME280_pressure;Samples;Min_cycle;Max_cycle;Signal;HPM_P1;HPM_P2
2021/12/05 00:20:30;;;;;;;1.20;1.20;;;;;;;;;;6308699;22;20160;-82
2021/12/05 00:23:02;;;;;;;2.87;1.67;;;;;;;;;;6308382;22;20222;-82
2021/12/05 00:25:32;;;;;;;1.80;1.70;;;;;;;;;;6307980;22;20168;-82
2021/12/05 00:28:24;;;;;;;2.93;1.53;;;;;;;;;;6308381;22;20161;-82
2021/12/05 00:31:16;;;;;;;1.90;1.60;;;;;;;;;;6307957;22;20178;-82
2021/12/05 00:39:36;;;;;;;4.90;2.77;;;;;;;;;;6305963;22;20176;-82
2021/12/05 00:42:23;;;;;;;5.50;2.83;;;;;;;;;;6308373;22;20172;-82
2021/12/05 00:50:41;;;;;;;8.40;3.50;;;;;;;;;;6307672;22;20172;-82
2021/12/05 00:53:59;;;;;;;6.63;4.30;;;;;;;;;;6308253;22;20172;-82
2021/12/05 00:56:36;;;;;;;6.23;2.23;;;;;;;;;;6308159;22;20221;-82
2021/12/05 00:59:36;;;;;;;6.17;2.47;;;;;;;;;;6309864;22;20222;-82
2021/12/05 01:02:31;;;;;;;3.40;3.10;;;;;;;;;;6310389;22;20217;-82
2021/12/05 01:10:57;;;;;;;7.37;3.67;;;;;;;;;;5111640;27;20537;-82
2021/12/05 01:13:36;;;;;;;4.20;2.40;;;;;;;;;;5111225;28;20230;-82
2021/12/05 01:16:08;;;;;;;7.17;2.53;;;;;;;;;;5111885;28;20196;-82
2021/12/05 01:18:38;;;;;;;4.03;2.83;;;;;;;;;;5111499;28;20196;-82
2021/12/05 01:21:11;;;;;;;4.30;2.93;;;;;;;;;;5111606;28;20208;-83
2021/12/05 01:23:50;;;;;;;4.13;2.53;;;;;;;;;;5111550;28;20199;-83
2021/12/05 01:26:25;;;;;;;6.23;2.63;;;;;;;;;;5111352;28;20195;-83
2021/12/05 01:29:18;;;;;;;2.97;2.57;;;;;;;;;;5111591;28;20239;-83
2021/12/05 01:31:58;;;;;;;3.20;2.70;;;;;;;;;;5111627;28;20201;-83
2021/12/05 01:34:40;;;;;;;4.30;3.70;;;;;;;;;;5111394;28;20200;-84
2021/12/05 01:37:19;;;;;;;4.57;4.07;;;;;;;;;;5111475;28;20215;-84
2021/12/05 01:40:03;;;;;;;5.37;4.40;;;;;;;;;;5111378;28;20191;-84
2021/12/05 01:43:10;;;;;;;2.97;2.77;;;;;;;;;;5111362;28;20196;-84
2021/12/05 01:46:20;;;;;;;7.07;3.63;;;;;;;;;;5110835;28;20249;-84
2021/12/05 01:57:40;;;;;;;4.53;3.67;;;;;;;;;;5111487;28;20208;-84
2021/12/05 02:09:20;;;;;;;5.17;3.60;;;;;;;;;;5075278;28;20233;-84
2021/12/05 02:12:22;;;;;;;6.07;5.30;;;;;;;;;;5108738;28;20231;-85
2021/12/05 02:34:43;;;;;;;11.50;8.67;;;;;;;;;;5094013;28;20204;-85
2021/12/05 02:40:18;;;;;;;11.00;8.37;;;;;;;;;;5096311;28;20201;-85
2021/12/05 02:42:53;;;;;;;11.83;10.43;;;;;;;;;;5096718;28;20203;-85
2021/12/05 02:45:21;;;;;;;7.63;4.20;;;;;;;;;;5096509;28;20212;-85
2021/12/05 02:47:52;;;;;;;13.93;12.43;;;;;;;;;;5096697;28;20217;-85
2021/12/05 02:50:22;;;;;;;16.73;11.37;;;;;;;;;;5096131;28;20221;-85
2021/12/05 02:52:59;;;;;;;16.77;13.87;;;;;;;;;;5096714;28;20227;-85
2021/12/05 02:55:35;;;;;;;16.37;13.13;;;;;;;;;;5096295;28;20185;-85
2021/12/05 02:58:14;;;;;;;16.53;10.13;;;;;;;;;;5096378;28;20208;-85
2021/12/05 03:00:52;;;;;;;16.53;11.60;;;;;;;;;;5095903;28;20212;-85
2021/12/05 03:03:24;;;;;;;21.40;14.90;;;;;;;;;;5096401;28;20220;-85
2021/12/05 03:05:57;;;;;;;19.50;12.63;;;;;;;;;;5095630;28;20222;-85
2021/12/05 03:08:27;;;;;;;19.07;15.87;;;;;;;;;;5095633;28;20477;-85
2021/12/05 03:11:01;;;;;;;15.93;14.30;;;;;;;;;;5095987;28;20252;-85
2021/12/05 03:13:30;;;;;;;15.93;13.47;;;;;;;;;;5095854;28;20227;-85
2021/12/05 03:16:00;;;;;;;13.90;10.30;;;;;;;;;;5095714;28;20182;-85
2021/12/05 03:18:29;;;;;;;13.20;11.93;;;;;;;;;;5095643;28;20219;-85
2021/12/05 03:20:58;;;;;;;13.23;11.03;;;;;;;;;;5095921;28;20284;-85
2021/12/05 03:23:29;;;;;;;15.57;12.63;;;;;;;;;;5095588;28;20283;-85
2021/12/05 03:25:57;;;;;;;9.07;8.03;;;;;;;;;;5096051;28;20262;-85
2021/12/05 03:28:26;;;;;;;10.63;7.20;;;;;;;;;;5095623;28;20208;-85
2021/12/05 03:30:55;;;;;;;13.37;10.63;;;;;;;;;;5095501;28;20221;-86
2021/12/05 03:33:23;;;;;;;11.70;9.17;;;;;;;;;;5094343;28;20262;-85
2021/12/05 03:35:52;;;;;;;12.17;8.30;;;;;;;;;;5095750;28;20229;-86
2021/12/05 03:38:22;;;;;;;9.63;7.17;;;;;;;;;;5095283;28;20254;-86
2021/12/05 03:40:52;;;;;;;19.00;12.10;;;;;;;;;;5095259;28;20209;-85
2021/12/05 03:43:23;;;;;;;7.37;6.67;;;;;;;;;;5095524;28;20234;-85
2021/12/05 03:45:54;;;;;;;12.10;8.97;;;;;;;;;;5095065;28;20205;-86
2021/12/05 03:48:25;;;;;;;12.40;10.30;;;;;;;;;;5092295;28;20304;-85
2021/12/05 03:50:55;;;;;;;13.83;10.43;;;;;;;;;;5091727;28;20223;-85
2021/12/05 03:53:24;;;;;;;12.50;10.43;;;;;;;;;;5077555;28;20225;-85
2021/12/05 03:55:55;;;;;;;13.73;8.47;;;;;;;;;;5095268;28;20224;-85
2021/12/05 03:58:25;;;;;;;6.80;5.53;;;;;;;;;;5095124;28;20209;-86
2021/12/05 04:00:55;;;;;;;12.30;7.90;;;;;;;;;;5094913;28;20224;-85
2021/12/05 04:03:25;;;;;;;12.63;8.90;;;;;;;;;;5095004;28;20213;-86
2021/12/05 04:05:54;;;;;;;13.23;9.83;;;;;;;;;;5095029;28;20204;-86
2021/12/05 04:08:24;;;;;;;13.43;8.17;;;;;;;;;;5094908;28;20234;-86
2021/12/05 04:10:58;;;;;;;10.63;7.60;;;;;;;;;;5094784;28;20289;-86
2021/12/05 04:13:26;;;;;;;9.17;7.80;;;;;;;;;;5095023;28;20202;-86
2021/12/05 04:15:56;;;;;;;11.33;8.37;;;;;;;;;;5094884;28;20234;-86
2021/12/05 04:18:25;;;;;;;8.10;6.77;;;;;;;;;;5094530;28;20222;-86
2021/12/05 04:20:54;;;;;;;11.30;8.57;;;;;;;;;;5094716;28;20205;-86
2021/12/05 04:23:23;;;;;;;13.83;9.40;;;;;;;;;;5094628;28;20226;-86
2021/12/05 04:25:52;;;;;;;9.57;7.73;;;;;;;;;;5094676;28;20245;-85
2021/12/05 04:28:23;;;;;;;10.87;6.67;;;;;;;;;;5094456;28;20220;-86
2021/12/05 04:30:52;;;;;;;12.67;11.57;;;;;;;;;;5094368;28;20301;-86
2021/12/05 04:33:21;;;;;;;14.63;10.73;;;;;;;;;;5094049;28;20223;-86
2021/12/05 04:35:49;;;;;;;15.77;9.37;;;;;;;;;;5094161;28;20212;-86
2021/12/05 04:38:18;;;;;;;6.87;5.47;;;;;;;;;;5094035;28;20203;-86
2021/12/05 04:40:47;;;;;;;8.60;6.00;;;;;;;;;;5094501;28;20207;-86
2021/12/05 04:43:16;;;;;;;10.60;9.53;;;;;;;;;;5094206;28;20261;-86
2021/12/05 04:45:47;;;;;;;13.30;9.63;;;;;;;;;;5094329;28;20212;-86
2021/12/05 04:48:16;;;;;;;13.97;11.43;;;;;;;;;;5094111;28;20207;-86
2021/12/05 04:50:45;;;;;;;11.90;10.43;;;;;;;;;;5093890;28;20248;-86
2021/12/05 04:53:14;;;;;;;12.43;10.87;;;;;;;;;;5094217;28;20262;-86
2021/12/05 04:55:42;;;;;;;9.33;8.43;;;;;;;;;;5093828;28;20209;-86
2021/12/05 04:58:11;;;;;;;12.30;11.00;;;;;;;;;;5094127;28;20260;-86
2021/12/05 05:00:41;;;;;;;12.43;9.27;;;;;;;;;;5094130;28;20256;-86
2021/12/05 05:03:12;;;;;;;13.37;10.23;;;;;;;;;;5093864;28;20249;-86
2021/12/05 05:05:47;;;;;;;12.43;10.20;;;;;;;;;;5094053;28;20214;-86
2021/12/05 05:08:16;;;;;;;9.13;8.23;;;;;;;;;;5094404;28;20212;-86
2021/12/05 05:10:45;;;;;;;9.27;8.37;;;;;;;;;;5093244;28;20297;-86
2021/12/05 05:13:13;;;;;;;7.90;5.43;;;;;;;;;;5093819;28;20252;-86
2021/12/05 05:15:42;;;;;;;9.57;7.67;;;;;;;;;;5093771;28;20211;-86
2021/12/05 05:18:13;;;;;;;6.37;5.17;;;;;;;;;;5093857;28;20197;-87
2021/12/05 05:20:50;;;;;;;5.17;4.57;;;;;;;;;;5093752;28;20201;-86
2021/12/05 05:23:39;;;;;;;4.50;4.07;;;;;;;;;;5093777;28;20204;-87
2021/12/05 05:40:23;;;;;;;5.23;3.37;;;;;;;;;;5093998;28;20204;-86
2021/12/05 05:48:36;;;;;;;4.67;3.47;;;;;;;;;;5093661;28;20189;-87
2021/12/05 05:51:07;;;;;;;2.73;2.53;;;;;;;;;;5093503;28;20232;-87
2021/12/05 05:53:36;;;;;;;3.77;3.43;;;;;;;;;;5093690;28;20193;-87
2021/12/05 05:56:07;;;;;;;5.93;5.33;;;;;;;;;;5094994;28;20197;-86
2021/12/05 05:58:43;;;;;;;9.93;7.10;;;;;;;;;;5097380;28;20201;-87
2021/12/05 06:01:20;;;;;;;4.93;3.83;;;;;;;;;;5097082;28;20224;-87
2021/12/05 06:03:49;;;;;;;8.63;6.17;;;;;;;;;;5097368;28;20223;-86
2021/12/05 06:06:20;;;;;;;10.27;7.67;;;;;;;;;;5097341;28;20239;-86
2021/12/05 06:08:49;;;;;;;5.07;4.47;;;;;;;;;;5097227;28;20294;-86
2021/12/05 06:11:18;;;;;;;7.07;5.90;;;;;;;;;;5096852;28;20221;-86
2021/12/05 06:13:47;;;;;;;6.77;6.17;;;;;;;;;;5096872;28;20228;-86
2021/12/05 06:16:16;;;;;;;1.53;1.37;;;;;;;;;;5096686;28;20269;-87
2021/12/05 06:18:45;;;;;;;3.00;2.70;;;;;;;;;;5097110;28;20212;-87
2021/12/05 06:21:14;;;;;;;5.77;4.10;;;;;;;;;;5096650;28;20228;-87
2021/12/05 06:23:44;;;;;;;1.10;1.10;;;;;;;;;;5096692;28;20216;-87
2021/12/05 06:26:19;;;;;;;1.53;1.50;;;;;;;;;;5097007;28;20186;-87
2021/12/05 06:29:02;;;;;;;2.30;1.93;;;;;;;;;;5097174;28;20276;-87
2021/12/05 06:31:49;;;;;;;1.17;1.17;;;;;;;;;;5096856;28;20228;-86
2021/12/05 06:37:27;;;;;;;1.80;1.73;;;;;;;;;;5096640;28;20201;-86
2021/12/05 06:40:20;;;;;;;2.70;2.60;;;;;;;;;;5096598;28;20201;-86
2021/12/05 06:42:59;;;;;;;2.70;2.57;;;;;;;;;;5096561;28;20212;-87
2021/12/05 06:48:25;;;;;;;2.63;2.20;;;;;;;;;;5034394;28;20206;-86
2021/12/05 06:50:54;;;;;;;1.17;1.17;;;;;;;;;;5082101;28;20201;-86
2021/12/05 06:53:23;;;;;;;1.83;1.73;;;;;;;;;;5096172;28;20223;-87
2021/12/05 06:55:52;;;;;;;1.40;1.40;;;;;;;;;;5096589;28;20201;-86
2021/12/05 06:58:21;;;;;;;2.53;2.33;;;;;;;;;;5096168;28;20205;-86
2021/12/05 07:00:49;;;;;;;5.07;3.00;;;;;;;;;;5096135;28;20254;-86
2021/12/05 07:03:18;;;;;;;2.77;2.67;;;;;;;;;;5095965;28;20228;-87
2021/12/05 07:05:53;;;;;;;1.87;1.77;;;;;;;;;;5096196;28;20284;-86
2021/12/05 07:08:25;;;;;;;0.90;0.90;;;;;;;;;;5096056;28;20352;-86
2021/12/05 07:11:03;;;;;;;8.00;5.53;;;;;;;;;;5096163;28;20193;-86
2021/12/05 07:16:28;;;;;;;9.23;6.40;;;;;;;;;;5080276;28;20220;-86
2021/12/05 07:21:49;;;;;;;9.17;5.17;;;;;;;;;;5090574;28;20205;-86
2021/12/05 07:24:30;;;;;;;8.73;7.83;;;;;;;;;;5095512;28;20330;-86
2021/12/05 07:40:56;;;;;;;11.97;9.57;;;;;;;;;;5095413;28;20275;-86
2021/12/05 07:43:26;;;;;;;12.67;10.20;;;;;;;;;;5095639;28;20228;-86
2021/12/05 07:45:57;;;;;;;5.83;4.63;;;;;;;;;;5095088;28;20288;-87
2021/12/05 07:48:31;;;;;;;7.77;6.37;;;;;;;;;;5095274;28;20197;-86
2021/12/05 07:51:08;;;;;;;16.07;12.33;;;;;;;;;;5095140;28;20257;-86
2021/12/05 07:53:46;;;;;;;13.27;9.90;;;;;;;;;;5094896;28;20216;-86
2021/12/05 07:56:19;;;;;;;8.93;6.87;;;;;;;;;;5095521;28;20193;-86
2021/12/05 07:59:08;;;;;;;10.97;7.40;;;;;;;;;;5095213;28;20213;-86
2021/12/05 08:15:33;;;;;;;15.00;10.03;;;;;;;;;;5094987;28;20241;-87
2021/12/05 08:18:01;;;;;;;23.07;13.97;;;;;;;;;;5094162;28;20199;-86
2021/12/05 08:20:31;;;;;;;19.17;12.77;;;;;;;;;;5094998;28;20201;-86
2021/12/05 08:23:01;;;;;;;12.40;7.90;;;;;;;;;;5094550;28;20193;-86
2021/12/05 08:25:33;;;;;;;18.23;13.60;;;;;;;;;;5094824;28;20262;-86
2021/12/05 08:28:13;;;;;;;22.53;14.40;;;;;;;;;;5094500;28;20181;-86
2021/12/05 08:30:46;;;;;;;14.77;11.33;;;;;;;;;;5094891;28;20204;-86
2021/12/05 08:33:32;;;;;;;2.73;2.40;;;;;;;;;;5094067;28;20220;-86
2021/12/05 08:41:47;;;;;;;14.93;11.50;;;;;;;;;;5094221;28;20201;-86
2021/12/05 09:26:10;;;;;;;7.10;4.97;;;;;;;;;;5093714;28;20225;-86
2021/12/05 09:38:33;;;;;;;11.10;7.77;;;;;;;;;;5062611;28;20212;-86
2021/12/05 09:40:30;;;;;;;8.47;7.17;;;;;;;;;;5097338;28;20181;-86
2021/12/05 09:51:52;;;;;;;7.10;4.70;;;;;;;;;;5097568;28;20205;-87
2021/12/05 10:02:46;;;;;;;2.67;2.43;;;;;;;;;;5096964;28;20221;-86
2021/12/05 10:08:36;;;;;;;9.33;6.67;;;;;;;;;;5071405;28;20201;-87
2021/12/05 10:11:18;;;;;;;5.63;5.03;;;;;;;;;;5097342;28;20201;-86
2021/12/05 10:14:00;;;;;;;2.30;2.20;;;;;;;;;;5096970;28;20236;-86
2021/12/05 10:16:46;;;;;;;2.10;2.00;;;;;;;;;;5097361;28;20283;-86
2021/12/05 10:36:15;;;;;;;1.47;1.47;;;;;;;;;;5096833;28;20185;-86
2021/12/05 10:38:47;;;;;;;10.27;7.63;;;;;;;;;;5096841;28;20201;-86
2021/12/05 10:41:26;;;;;;;5.03;3.27;;;;;;;;;;5096264;28;20200;-86
2021/12/05 10:43:57;;;;;;;2.33;2.23;;;;;;;;;;5096592;28;20219;-86
2021/12/05 10:46:27;;;;;;;8.50;6.67;;;;;;;;;;5096467;28;20209;-86
2021/12/05 10:48:58;;;;;;;13.83;11.33;;;;;;;;;;5096717;28;20201;-86
2021/12/05 10:51:28;;;;;;;7.63;6.30;;;;;;;;;;5096690;28;20207;-86
2021/12/05 10:53:58;;;;;;;9.53;6.23;;;;;;;;;;5096561;28;20282;-86
2021/12/05 10:56:27;;;;;;;7.13;5.63;;;;;;;;;;5096519;28;20204;-87
2021/12/05 10:58:59;;;;;;;9.27;6.23;;;;;;;;;;5096253;28;20287;-87
2021/12/05 11:01:33;;;;;;;1.63;1.63;;;;;;;;;;5096700;28;20234;-87
2021/12/05 11:04:03;;;;;;;11.33;7.50;;;;;;;;;;5095968;28;20220;-87
2021/12/05 11:06:44;;;;;;;12.43;11.03;;;;;;;;;;5095869;28;20197;-87
2021/12/05 11:09:14;;;;;;;10.77;9.10;;;;;;;;;;5096130;28;20236;-87
2021/12/05 11:11:44;;;;;;;12.93;10.43;;;;;;;;;;5096172;28;20205;-87
2021/12/05 11:14:15;;;;;;;11.87;9.47;;;;;;;;;;5095684;28;20232;-87
2021/12/05 11:16:47;;;;;;;8.03;6.57;;;;;;;;;;5096004;28;20205;-87
2021/12/05 11:19:17;;;;;;;1.97;1.87;;;;;;;;;;5095835;28;20284;-87
2021/12/05 11:21:47;;;;;;;10.10;8.63;;;;;;;;;;5095969;28;20193;-87
2021/12/05 11:24:19;;;;;;;2.93;2.73;;;;;;;;;;5096081;28;20239;-87
2021/12/05 11:27:02;;;;;;;5.87;4.90;;;;;;;;;;5095978;28;20197;-87
2021/12/05 11:29:42;;;;;;;9.00;5.07;;;;;;;;;;5095654;28;20214;-87
2021/12/05 11:32:11;;;;;;;4.57;3.97;;;;;;;;;;5095852;28;20197;-87
2021/12/05 11:34:40;;;;;;;3.87;3.63;;;;;;;;;;5095815;28;20222;-87
2021/12/05 11:37:08;;;;;;;8.70;6.70;;;;;;;;;;5095046;28;20196;-87
2021/12/05 11:39:38;;;;;;;8.27;5.77;;;;;;;;;;5095658;28;20226;-87
2021/12/05 11:42:14;;;;;;;3.30;3.03;;;;;;;;;;5095711;28;20205;-87
2021/12/05 11:44:52;;;;;;;3.67;2.63;;;;;;;;;;5095629;28;20181;-87
2021/12/05 11:47:21;;;;;;;5.63;4.73;;;;;;;;;;5095351;28;20185;-87
2021/12/05 11:49:50;;;;;;;2.07;1.97;;;;;;;;;;5095353;28;20192;-87
2021/12/05 11:52:23;;;;;;;3.83;3.47;;;;;;;;;;5095199;28;20238;-87
2021/12/05 11:54:52;;;;;;;2.20;2.10;;;;;;;;;;5094478;28;20241;-87
2021/12/05 11:57:22;;;;;;;4.73;4.33;;;;;;;;;;5095252;28;20209;-87
2021/12/05 11:59:53;;;;;;;2.57;2.37;;;;;;;;;;5095280;28;20185;-87
2021/12/05 12:02:24;;;;;;;2.43;2.30;;;;;;;;;;5095115;28;20196;-85
2021/12/05 12:04:54;;;;;;;7.90;6.13;;;;;;;;;;5094906;28;20205;-85
2021/12/05 12:07:29;;;;;;;9.10;6.37;;;;;;;;;;5095305;28;20205;-86
2021/12/05 12:09:58;;;;;;;7.10;6.03;;;;;;;;;;5094822;28;20253;-86
2021/12/05 12:12:27;;;;;;;2.93;2.73;;;;;;;;;;5094900;28;20202;-86
2021/12/05 12:14:57;;;;;;;2.40;2.20;;;;;;;;;;5094939;28;20232;-85
2021/12/05 12:17:26;;;;;;;6.03;5.43;;;;;;;;;;5094575;28;20201;-86
2021/12/05 12:19:55;;;;;;;4.20;3.80;;;;;;;;;;5094993;28;20209;-85
2021/12/05 12:22:26;;;;;;;5.87;4.63;;;;;;;;;;5094544;28;20243;-86
2021/12/05 12:24:56;;;;;;;6.37;5.73;;;;;;;;;;5094858;28;20233;-85
2021/12/05 12:27:25;;;;;;;9.03;5.93;;;;;;;;;;5094676;28;20205;-86
2021/12/05 12:29:53;;;;;;;5.90;5.27;;;;;;;;;;5094848;28;20200;-85
2021/12/05 12:32:26;;;;;;;3.77;3.37;;;;;;;;;;5094698;28;20205;-85
2021/12/05 12:34:58;;;;;;;12.33;7.57;;;;;;;;;;5094109;28;20221;-86
2021/12/05 12:37:27;;;;;;;7.30;5.43;;;;;;;;;;5094630;28;20224;-85
2021/12/05 12:39:55;;;;;;;4.90;4.50;;;;;;;;;;5094640;28;20209;-85
2021/12/05 12:42:26;;;;;;;10.60;8.10;;;;;;;;;;5094731;28;20217;-86
2021/12/05 12:45:13;;;;;;;10.67;7.07;;;;;;;;;;5094522;28;20193;-86
2021/12/05 12:47:43;;;;;;;11.63;7.47;;;;;;;;;;5094159;28;20196;-86
2021/12/05 12:50:23;;;;;;;3.07;2.83;;;;;;;;;;5094452;28;20185;-86
2021/12/05 12:52:59;;;;;;;4.77;3.87;;;;;;;;;;5094191;28;20207;-85
2021/12/05 12:55:28;;;;;;;8.40;6.23;;;;;;;;;;5093792;28;20232;-85
2021/12/05 12:57:57;;;;;;;6.47;5.13;;;;;;;;;;5094155;28;20197;-85
2021/12/05 13:00:28;;;;;;;5.90;4.97;;;;;;;;;;5094423;28;20261;-86
2021/12/05 13:03:14;;;;;;;13.10;8.67;;;;;;;;;;5094174;28;20266;-85
2021/12/05 13:07:19;;;;;;;11.43;7.70;;;;;;;;;;5093787;28;20243;-85
2021/12/05 13:11:48;;;;;;;16.03;7.40;;;;;;;;;;5094105;28;20258;-86
2021/12/05 13:14:17;;;;;;;6.27;5.50;;;;;;;;;;5094278;28;20224;-85
2021/12/05 13:16:49;;;;;;;10.50;5.37;;;;;;;;;;5093795;28;20208;-85
2021/12/05 13:19:23;;;;;;;6.70;5.07;;;;;;;;;;5093965;28;20205;-86
2021/12/05 13:21:56;;;;;;;8.20;7.23;;;;;;;;;;5093768;28;20204;-85
2021/12/05 13:24:31;;;;;;;10.03;8.53;;;;;;;;;;5093877;28;20200;-85
2021/12/05 13:27:03;;;;;;;14.37;9.40;;;;;;;;;;5093979;28;20216;-85
2021/12/05 13:29:33;;;;;;;9.67;8.23;;;;;;;;;;5093532;28;20191;-85
2021/12/05 13:32:11;;;;;;;10.57;7.30;;;;;;;;;;5093607;28;20287;-85
2021/12/05 13:34:50;;;;;;;17.70;8.13;;;;;;;;;;5094044;28;20220;-85
2021/12/05 13:37:33;;;;;;;6.93;6.23;;;;;;;;;;5093981;28;20200;-85
2021/12/05 13:40:12;;;;;;;4.13;3.80;;;;;;;;;;5094090;28;20220;-85
2021/12/05 13:42:43;;;;;;;14.03;10.13;;;;;;;;;;5093525;28;20201;-85
2021/12/05 13:45:16;;;;;;;2.33;2.20;;;;;;;;;;5093991;28;20194;-85
2021/12/05 13:47:47;;;;;;;6.47;5.37;;;;;;;;;;5093907;28;20262;-85
2021/12/05 13:50:41;;;;;;;6.90;4.97;;;;;;;;;;5093722;28;20246;-85
2021/12/05 13:53:30;;;;;;;7.43;4.23;;;;;;;;;;5078903;28;20254;-85
2021/12/05 13:56:06;;;;;;;2.60;2.47;;;;;;;;;;5068280;28;20229;-85
2021/12/05 13:58:44;;;;;;;1.00;1.00;;;;;;;;;;5093577;28;20204;-85
2021/12/05 14:01:14;;;;;;;8.63;7.33;;;;;;;;;;5093160;28;20185;-86
2021/12/05 14:03:49;;;;;;;4.30;3.13;;;;;;;;;;5093695;28;20236;-85
2021/12/05 14:06:52;;;;;;;11.97;7.83;;;;;;;;;;5093359;28;20192;-85
2021/12/05 14:09:26;;;;;;;4.27;3.87;;;;;;;;;;5093199;28;20247;-85
2021/12/05 14:11:58;;;;;;;8.57;6.13;;;;;;;;;;5093628;28;20286;-85
2021/12/05 14:14:27;;;;;;;4.70;4.23;;;;;;;;;;5093441;28;20201;-85
2021/12/05 14:16:57;;;;;;;6.73;6.10;;;;;;;;;;5094900;28;20227;-85
2021/12/05 14:19:28;;;;;;;4.53;3.90;;;;;;;;;;5097255;28;20206;-86
2021/12/05 14:21:58;;;;;;;7.50;5.53;;;;;;;;;;5097438;28;20201;-86
2021/12/05 14:24:27;;;;;;;9.10;7.13;;;;;;;;;;5097317;28;20209;-86
2021/12/05 14:26:59;;;;;;;5.83;5.20;;;;;;;;;;5096833;28;20204;-85
2021/12/05 14:29:28;;;;;;;12.87;7.70;;;;;;;;;;5097037;28;20204;-85
2021/12/05 14:31:58;;;;;;;12.03;6.50;;;;;;;;;;5096939;28;20204;-86
2021/12/05 14:34:27;;;;;;;4.90;4.43;;;;;;;;;;5096928;28;20201;-86
2021/12/05 14:36:59;;;;;;;7.13;5.67;;;;;;;;;;5096669;28;20201;-86
2021/12/05 14:39:29;;;;;;;8.00;6.03;;;;;;;;;;5096772;28;20258;-85
2021/12/05 14:42:01;;;;;;;8.40;6.60;;;;;;;;;;5096744;28;20231;-86
2021/12/05 14:44:30;;;;;;;5.73;4.40;;;;;;;;;;5096964;28;20197;-86
2021/12/05 14:47:01;;;;;;;9.73;6.80;;;;;;;;;;5096474;28;20235;-86
2021/12/05 14:49:30;;;;;;;2.50;2.40;;;;;;;;;;5096609;28;20204;-86
2021/12/05 14:52:01;;;;;;;3.43;3.03;;;;;;;;;;5096605;28;20228;-86
2021/12/05 14:54:32;;;;;;;9.83;6.80;;;;;;;;;;5096672;28;20201;-86
2021/12/05 14:57:06;;;;;;;5.00;4.30;;;;;;;;;;5096207;28;20274;-86
2021/12/05 14:59:34;;;;;;;7.17;5.00;;;;;;;;;;5096310;28;20197;-86
2021/12/05 15:02:05;;;;;;;7.57;5.70;;;;;;;;;;5096327;28;20204;-86
2021/12/05 15:04:37;;;;;;;8.77;5.87;;;;;;;;;;5096134;28;20240;-86
2021/12/05 15:07:06;;;;;;;7.23;5.77;;;;;;;;;;5096494;28;20205;-86
2021/12/05 15:09:36;;;;;;;3.07;2.80;;;;;;;;;;5095727;28;20256;-86
2021/12/05 15:12:07;;;;;;;2.17;2.07;;;;;;;;;;5096283;28;20205;-86
2021/12/05 15:14:36;;;;;;;3.57;3.23;;;;;;;;;;5095983;28;20201;-86
2021/12/05 15:17:10;;;;;;;5.53;3.93;;;;;;;;;;5095598;28;20293;-86
2021/12/05 15:19:40;;;;;;;4.23;3.83;;;;;;;;;;5096101;28;20204;-86
2021/12/05 15:22:26;;;;;;;7.63;4.43;;;;;;;;;;5095679;28;20220;-86
2021/12/05 15:24:56;;;;;;;3.17;2.80;;;;;;;;;;5095949;28;20197;-86
2021/12/05 15:27:30;;;;;;;10.87;7.87;;;;;;;;;;5095862;28;20208;-86
2021/12/05 15:29:59;;;;;;;2.83;2.70;;;;;;;;;;5096018;28;20201;-86
2021/12/05 15:32:30;;;;;;;3.87;3.43;;;;;;;;;;5095575;28;20212;-86
2021/12/05 15:34:59;;;;;;;6.03;5.40;;;;;;;;;;5096037;28;20228;-86
2021/12/05 15:37:28;;;;;;;3.63;3.23;;;;;;;;;;5095687;28;20201;-86
2021/12/05 15:39:59;;;;;;;4.37;3.60;;;;;;;;;;5095723;28;20205;-86
2021/12/05 15:42:31;;;;;;;7.07;5.67;;;;;;;;;;5095609;28;20201;-86
2021/12/05 15:45:01;;;;;;;7.13;4.80;;;;;;;;;;5095285;28;20185;-85
2021/12/05 15:47:30;;;;;;;8.33;7.37;;;;;;;;;;5095219;28;20220;-86
2021/12/05 15:50:00;;;;;;;5.37;3.73;;;;;;;;;;5095429;28;20246;-86
2021/12/05 15:52:32;;;;;;;7.37;4.43;;;;;;;;;;5095458;28;20272;-85
2021/12/05 15:55:00;;;;;;;6.43;3.83;;;;;;;;;;5095314;28;20209;-86
2021/12/05 15:57:33;;;;;;;9.13;7.30;;;;;;;;;;5095044;28;20459;-86
2021/12/05 16:00:05;;;;;;;4.67;3.73;;;;;;;;;;5095191;28;20185;-86
2021/12/05 16:02:33;;;;;;;6.23;4.73;;;;;;;;;;5095367;28;20201;-86
2021/12/05 16:05:02;;;;;;;2.07;1.83;;;;;;;;;;5095001;28;20269;-87
2021/12/05 16:07:33;;;;;;;3.57;3.10;;;;;;;;;;5094800;28;20242;-87
2021/12/05 16:10:12;;;;;;;7.73;4.93;;;;;;;;;;5094794;28;20243;-87
2021/12/05 16:12:43;;;;;;;3.73;3.43;;;;;;;;;;5095071;28;20185;-87
2021/12/05 16:15:12;;;;;;;2.10;2.00;;;;;;;;;;5094575;28;20254;-87
2021/12/05 16:17:41;;;;;;;2.00;1.90;;;;;;;;;;5094480;28;20225;-87
2021/12/05 16:20:22;;;;;;;4.17;3.60;;;;;;;;;;5095006;28;20239;-87
2021/12/05 16:23:14;;;;;;;6.17;3.97;;;;;;;;;;5094448;28;20243;-87
2021/12/05 16:25:44;;;;;;;8.77;5.83;;;;;;;;;;5079845;28;20208;-87
2021/12/05 16:28:15;;;;;;;8.33;5.87;;;;;;;;;;5094842;28;20197;-87
2021/12/05 16:30:45;;;;;;;8.83;6.93;;;;;;;;;;5094626;28;20213;-87
2021/12/05 16:33:15;;;;;;;4.00;3.60;;;;;;;;;;5094881;28;20201;-87
2021/12/05 16:35:46;;;;;;;5.30;4.60;;;;;;;;;;5094410;28;20230;-86
2021/12/05 16:38:22;;;;;;;6.67;4.60;;;;;;;;;;5094816;28;20186;-87
2021/12/05 16:40:56;;;;;;;10.03;7.20;;;;;;;;;;5093647;28;20224;-86
2021/12/05 16:43:26;;;;;;;3.10;2.77;;;;;;;;;;5094655;28;20200;-87
2021/12/05 16:45:57;;;;;;;3.10;2.80;;;;;;;;;;5094221;28;20204;-87
2021/12/05 16:48:25;;;;;;;2.20;2.03;;;;;;;;;;5094349;28;20197;-87
2021/12/05 16:50:54;;;;;;;7.40;5.00;;;;;;;;;;5094449;28;20197;-87
2021/12/05 16:53:33;;;;;;;6.70;5.90;;;;;;;;;;5094529;28;20259;-87
2021/12/05 16:56:03;;;;;;;3.13;2.63;;;;;;;;;;5093823;28;20235;-87
2021/12/05 16:58:34;;;;;;;6.40;5.50;;;;;;;;;;5093668;28;20197;-85
2021/12/05 17:01:03;;;;;;;2.80;2.50;;;;;;;;;;5094358;28;20253;-85
2021/12/05 17:03:32;;;;;;;5.40;4.80;;;;;;;;;;5093840;28;20290;-85
2021/12/05 17:06:09;;;;;;;6.07;3.73;;;;;;;;;;5094224;28;20205;-85
2021/12/05 17:08:46;;;;;;;2.27;2.17;;;;;;;;;;5093983;28;20207;-86
2021/12/05 17:11:18;;;;;;;6.83;5.80;;;;;;;;;;5094467;28;20231;-85
2021/12/05 17:13:49;;;;;;;2.33;2.23;;;;;;;;;;5094269;28;20205;-86
2021/12/05 17:16:20;;;;;;;9.07;5.83;;;;;;;;;;5093911;28;20217;-86
2021/12/05 17:18:56;;;;;;;7.27;4.47;;;;;;;;;;5093880;28;20205;-86
2021/12/05 17:21:26;;;;;;;8.43;7.03;;;;;;;;;;5093916;28;20189;-86
2021/12/05 17:23:57;;;;;;;4.27;3.87;;;;;;;;;;5094370;28;20322;-86
2021/12/05 17:26:27;;;;;;;2.00;1.90;;;;;;;;;;5094226;28;20193;-86
2021/12/05 17:29:03;;;;;;;2.10;2.00;;;;;;;;;;5093945;28;20212;-86
2021/12/05 17:31:33;;;;;;;3.33;3.13;;;;;;;;;;5093730;28;20234;-86
2021/12/05 17:34:04;;;;;;;3.40;3.10;;;;;;;;;;5094342;28;20187;-85
2021/12/05 17:36:34;;;;;;;6.37;4.90;;;;;;;;;;5093802;28;20286;-86
2021/12/05 17:39:06;;;;;;;7.53;5.60;;;;;;;;;;5093950;28;20262;-86
2021/12/05 17:41:34;;;;;;;6.53;5.87;;;;;;;;;;5093795;28;20201;-86
2021/12/05 17:44:05;;;;;;;4.27;3.87;;;;;;;;;;5094034;28;20258;-86
2021/12/05 17:46:34;;;;;;;5.60;4.33;;;;;;;;;;5093667;28;20205;-86
2021/12/05 17:49:04;;;;;;;3.47;3.13;;;;;;;;;;5093852;28;20219;-85
2021/12/05 17:51:38;;;;;;;3.50;3.20;;;;;;;;;;5094351;28;20216;-86
2021/12/05 17:54:07;;;;;;;3.63;3.30;;;;;;;;;;5098015;28;20230;-85
2021/12/05 17:56:43;;;;;;;4.07;3.57;;;;;;;;;;5097465;28;20228;-86
2021/12/05 17:59:25;;;;;;;4.30;3.90;;;;;;;;;;5097840;28;20239;-86
2021/12/05 18:04:41;;;;;;;5.00;4.37;;;;;;;;;;5097336;28;20256;-86
2021/12/05 18:07:10;;;;;;;1.97;1.87;;;;;;;;;;5097213;28;20220;-86
2021/12/05 18:09:39;;;;;;;1.93;1.83;;;;;;;;;;5097166;28;20240;-85
2021/12/05 18:12:12;;;;;;;1.83;1.73;;;;;;;;;;5097331;28;20209;-85
2021/12/05 18:14:42;;;;;;;2.63;2.43;;;;;;;;;;5097077;28;20209;-86
2021/12/05 18:17:11;;;;;;;3.80;2.50;;;;;;;;;;5097375;28;20247;-86
2021/12/05 18:19:40;;;;;;;5.83;3.73;;;;;;;;;;5096863;28;20258;-85
2021/12/05 18:22:09;;;;;;;3.83;2.20;;;;;;;;;;5093804;28;20200;-86
2021/12/05 18:24:37;;;;;;;5.00;3.60;;;;;;;;;;5089480;28;20227;-86
2021/12/05 18:27:06;;;;;;;1.10;1.10;;;;;;;;;;5088339;28;20274;-85
2021/12/05 18:29:35;;;;;;;2.67;2.33;;;;;;;;;;5078682;28;20217;-85
2021/12/05 18:32:10;;;;;;;2.90;2.60;;;;;;;;;;5076919;28;20270;-85
2021/12/05 18:34:39;;;;;;;5.30;3.03;;;;;;;;;;5076580;28;20208;-85
2021/12/05 18:37:09;;;;;;;4.27;3.13;;;;;;;;;;5093289;28;20232;-85
2021/12/05 18:39:42;;;;;;;2.23;2.03;;;;;;;;;;5096626;28;20258;-85
2021/12/05 18:42:12;;;;;;;3.50;3.20;;;;;;;;;;5082387;28;20213;-85
2021/12/05 18:44:48;;;;;;;3.77;2.67;;;;;;;;;;5096748;28;20220;-85
2021/12/05 18:47:18;;;;;;;4.10;2.53;;;;;;;;;;5094298;28;20261;-85
2021/12/05 18:49:47;;;;;;;1.87;1.77;;;;;;;;;;5085277;28;20216;-85
2021/12/05 18:52:16;;;;;;;2.03;1.93;;;;;;;;;;5096334;28;20216;-85
2021/12/05 18:54:45;;;;;;;1.67;1.60;;;;;;;;;;5088340;28;20217;-87
2021/12/05 18:57:15;;;;;;;1.27;1.27;;;;;;;;;;5089910;28;20247;-85
2021/12/05 18:59:49;;;;;;;2.20;2.00;;;;;;;;;;5076432;28;20214;-86
2021/12/05 19:05:10;;;;;;;2.77;2.60;;;;;;;;;;5085137;28;20220;-85
2021/12/05 19:07:49;;;;;;;2.50;2.30;;;;;;;;;;5080581;28;20229;-85
2021/12/05 19:13:04;;;;;;;4.03;2.93;;;;;;;;;;5080130;28;20201;-86
2021/12/05 19:15:33;;;;;;;2.47;2.30;;;;;;;;;;5085110;28;20240;-85